createdAt,value
2019-02-15T07:04:12.072Z,-1.75
2019-02-15T07:06:42.380Z,-1.78
2019-02-15T07:09:12.747Z,-1.75
2019-02-15T07:11:43.092Z,-1.73
2019-02-15T07:14:14.068Z,-1.71
2019-02-15T07:16:44.242Z,-1.69
2019-02-15T07:19:14.975Z,-1.68
2019-02-15T07:21:47.046Z,-1.68
2019-02-15T07:24:18.117Z,-1.66
2019-02-15T07:26:49.223Z,-1.59
2019-02-15T07:29:19.438Z,-1.59
2019-02-15T07:31:49.731Z,-1.56
2019-02-15T07:34:19.941Z,-1.55
2019-02-15T07:36:50.164Z,-1.53
2019-02-15T07:39:20.478Z,-1.51
2019-02-15T07:41:51.705Z,-1.46
2019-02-15T07:44:22.095Z,-1.40
2019-02-15T07:46:52.463Z,-1.37
2019-02-15T07:49:26.910Z,-1.30
2019-02-15T07:51:55.376Z,-1.25
2019-02-15T07:54:25.535Z,-1.20
2019-02-15T07:56:55.752Z,-1.11
2019-02-15T07:59:25.995Z,-1.05
2019-02-15T08:02:01.908Z,-1.00
2019-02-15T08:04:28.371Z,-0.94
2019-02-15T08:06:58.712Z,-0.88
2019-02-15T08:09:28.955Z,-0.80
2019-02-15T08:11:59.937Z,-0.71
2019-02-15T08:14:30.171Z,-0.66
2019-02-15T08:17:00.442Z,-0.58
2019-02-15T08:19:31.434Z,-0.50
2019-02-15T08:22:02.417Z,-0.41
2019-02-15T08:24:32.604Z,-0.31
2019-02-15T08:27:03.395Z,-0.23
2019-02-15T08:29:37.211Z,-0.15
2019-02-15T08:32:08.159Z,-0.05
2019-02-15T08:34:39.271Z,0.07
2019-02-15T08:37:09.500Z,0.17
2019-02-15T08:39:40.495Z,0.26
2019-02-15T08:42:10.666Z,0.34
2019-02-15T08:44:40.895Z,0.44
2019-02-15T08:47:13.384Z,0.53
2019-02-15T08:49:43.549Z,0.62
2019-02-15T08:52:13.686Z,0.69
2019-02-15T08:54:45.426Z,0.80
2019-02-15T08:57:15.958Z,0.90
2019-02-15T08:59:46.103Z,1.00
2019-02-15T09:02:19.670Z,1.10
2019-02-15T09:04:49.883Z,1.22
2019-02-15T09:07:20.823Z,1.32
2019-02-15T09:09:51.092Z,1.41
2019-02-15T09:12:22.111Z,1.51
2019-02-15T09:14:52.290Z,1.62
2019-02-15T09:17:22.535Z,1.71
2019-02-15T09:19:53.490Z,1.82
2019-02-15T09:22:23.678Z,1.92
2019-02-15T09:24:54.628Z,2.00
2019-02-15T09:28:02.180Z,2.10
2019-02-15T09:30:32.308Z,2.25
2019-02-15T09:33:02.538Z,2.38
2019-02-15T09:35:32.702Z,2.47
2019-02-15T09:38:04.398Z,2.56
2019-02-15T09:40:35.397Z,2.65
2019-02-15T09:43:06.378Z,2.76
2019-02-15T09:45:36.521Z,2.86
2019-02-15T09:48:07.553Z,2.92
2019-02-15T09:50:37.751Z,3.00
2019-02-15T09:53:07.938Z,3.15
2019-02-15T09:55:38.115Z,3.29
2019-02-15T09:58:09.847Z,3.41
2019-02-15T10:00:40.113Z,3.51
2019-02-15T10:03:10.269Z,3.65
2019-02-15T10:05:40.428Z,3.77
2019-02-15T10:08:10.628Z,3.83
2019-02-15T10:10:41.876Z,3.91
2019-02-15T10:13:12.108Z,4.00
2019-02-15T10:15:43.851Z,4.10
2019-02-15T10:18:14.038Z,4.21
2019-02-15T10:20:44.398Z,4.36
2019-02-15T10:23:16.511Z,4.50
2019-02-15T10:25:46.704Z,4.68
2019-02-15T10:28:16.940Z,4.85
2019-02-15T10:30:47.127Z,4.91
2019-02-15T10:33:18.113Z,4.97
2019-02-15T10:35:48.289Z,5.03
2019-02-15T10:38:19.334Z,5.08
2019-02-15T10:40:49.529Z,5.14
2019-02-15T10:43:19.718Z,5.21
2019-02-15T10:45:50.709Z,5.27
2019-02-15T10:48:22.333Z,5.33
2019-02-15T10:50:52.555Z,5.38
2019-02-15T10:53:23.160Z,5.43
2019-02-15T10:55:54.076Z,5.50
2019-02-15T10:58:26.339Z,5.56
2019-02-15T11:00:56.333Z,5.62
2019-02-15T11:03:26.624Z,5.71
2019-02-15T11:05:56.848Z,5.80
2019-02-15T11:08:27.085Z,5.99
2019-02-15T11:10:57.429Z,6.10
2019-02-15T11:13:27.988Z,6.16
2019-02-15T11:15:58.955Z,6.28
2019-02-15T11:18:29.163Z,6.34
2019-02-15T11:21:00.089Z,6.42
2019-02-15T11:23:30.310Z,6.48
2019-02-15T11:26:00.572Z,6.55
2019-02-15T11:28:30.835Z,6.67
2019-02-15T11:31:01.017Z,6.76
2019-02-15T11:33:32.193Z,6.83
2019-02-15T11:36:02.383Z,6.90
2019-02-15T11:38:33.374Z,6.91
2019-02-15T11:41:10.955Z,6.90
2019-02-15T11:43:35.517Z,6.99
2019-02-15T11:46:05.714Z,7.06
2019-02-15T11:48:37.228Z,7.15
2019-02-15T11:51:07.413Z,7.29
2019-02-15T11:53:39.156Z,7.33
2019-02-15T11:56:11.686Z,7.36
2019-02-15T11:58:41.912Z,7.54
2019-02-15T12:01:12.068Z,7.67
2019-02-15T12:03:42.376Z,7.71
2019-02-15T12:06:14.052Z,7.77
2019-02-15T12:08:45.004Z,7.79
2019-02-15T12:11:15.179Z,7.85
2019-02-15T12:13:45.385Z,7.85
2019-02-15T12:16:15.536Z,7.96
2019-02-15T12:18:45.742Z,8.00
2019-02-15T12:21:15.964Z,8.01
2019-02-15T12:23:47.721Z,8.08
2019-02-15T12:26:17.925Z,8.17
2019-02-15T12:28:48.184Z,8.19
2019-02-15T12:31:18.388Z,8.22
2019-02-15T12:33:49.363Z,8.31
2019-02-15T12:36:19.542Z,8.37
2019-02-15T12:38:49.742Z,8.42
2019-02-15T12:41:19.961Z,8.47
2019-02-15T12:43:50.959Z,8.52
2019-02-15T12:46:21.905Z,8.67
2019-02-15T12:48:52.120Z,8.70
2019-02-15T12:51:23.965Z,8.75
2019-02-15T12:53:54.993Z,8.84
2019-02-15T12:56:26.707Z,8.89
2019-02-15T12:58:58.814Z,8.90
2019-02-15T13:01:29.739Z,8.90
2019-02-15T13:03:59.930Z,8.93
2019-02-15T13:06:30.160Z,8.98
2019-02-15T13:09:00.800Z,9.04
2019-02-15T13:11:30.982Z,9.09
2019-02-15T13:14:01.182Z,9.16
2019-02-15T13:16:31.292Z,9.21
2019-02-15T13:19:03.150Z,9.23
2019-02-15T13:21:33.347Z,9.26
2019-02-15T13:24:04.001Z,9.30
2019-02-15T13:26:34.637Z,9.37
2019-02-15T13:29:05.300Z,9.39
2019-02-15T13:31:35.512Z,9.41
2019-02-15T13:34:05.731Z,9.40
2019-02-15T13:36:36.654Z,9.41
2019-02-15T13:39:07.389Z,9.47
2019-02-15T13:41:38.924Z,9.55
2019-02-15T13:44:10.905Z,9.60
2019-02-15T13:46:41.234Z,9.63
2019-02-15T13:49:12.948Z,9.66
2019-02-15T13:51:43.433Z,9.80
2019-02-15T13:54:13.607Z,9.86
2019-02-15T13:56:43.784Z,9.88
2019-02-15T13:59:13.997Z,9.95
2019-02-15T14:01:44.197Z,10.01
2019-02-15T14:04:14.465Z,10.05
2019-02-15T14:06:48.653Z,10.07
2019-02-15T14:09:18.914Z,10.11
2019-02-15T14:11:49.088Z,10.14
2019-02-15T14:14:19.262Z,10.18
2019-02-15T14:16:50.332Z,10.18
2019-02-15T14:19:21.325Z,10.20
2019-02-15T14:21:51.627Z,10.29
2019-02-15T14:24:21.920Z,10.31
2019-02-15T14:26:53.635Z,10.33
2019-02-15T14:29:23.890Z,10.39
2019-02-15T14:31:54.182Z,10.42
2019-02-15T14:34:25.094Z,10.40
2019-02-15T14:36:55.341Z,10.39
2019-02-15T14:39:25.667Z,10.38
2019-02-15T14:41:55.877Z,10.39
2019-02-15T14:44:27.625Z,10.43
2019-02-15T14:46:57.862Z,10.45
2019-02-15T14:49:28.127Z,10.50
2019-02-15T14:51:58.460Z,10.53
2019-02-15T14:54:29.652Z,10.55
2019-02-15T14:57:00.101Z,10.61
2019-02-15T14:59:30.279Z,10.70
2019-02-15T15:02:01.359Z,10.79
2019-02-15T15:04:31.607Z,10.85
2019-02-15T15:07:02.298Z,10.89
2019-02-15T15:09:34.193Z,10.90
2019-02-15T15:12:04.505Z,10.93
2019-02-15T15:14:34.722Z,11.01
2019-02-15T15:17:04.992Z,11.22
2019-02-15T15:19:35.322Z,11.42
2019-02-15T15:22:06.069Z,11.63
2019-02-15T15:24:36.257Z,11.82
2019-02-15T15:27:07.221Z,11.90
2019-02-15T15:29:37.370Z,11.94
2019-02-15T15:32:07.587Z,12.00
2019-02-15T15:34:40.768Z,12.07
2019-02-15T15:37:16.619Z,12.03
2019-02-15T15:39:43.809Z,11.96
2019-02-15T15:42:15.918Z,11.87
2019-02-15T15:44:46.096Z,11.73
2019-02-15T15:47:17.075Z,11.58
2019-02-15T15:49:47.317Z,11.38
2019-02-15T15:52:19.399Z,11.21
2019-02-15T15:54:50.996Z,11.07
2019-02-15T15:57:22.144Z,10.89
2019-02-15T15:59:52.355Z,10.67
2019-02-15T16:02:24.252Z,10.49
2019-02-15T16:04:54.424Z,10.34
2019-02-15T16:07:24.717Z,10.17
2019-02-15T16:09:55.727Z,10.04
2019-02-15T16:12:25.893Z,9.91
2019-02-15T16:14:56.038Z,9.74
2019-02-15T16:17:29.577Z,9.60
2019-02-15T16:19:59.698Z,9.45
2019-02-15T16:22:29.920Z,9.34
2019-02-15T16:25:00.858Z,9.21
2019-02-15T16:27:31.119Z,9.11
2019-02-15T16:30:01.315Z,9.02
2019-02-15T16:32:36.212Z,8.90
2019-02-15T16:35:06.805Z,8.79
2019-02-15T16:37:36.970Z,8.70
2019-02-15T16:40:08.525Z,8.59
2019-02-15T16:42:39.638Z,8.49
2019-02-15T16:45:11.411Z,8.36
2019-02-15T16:47:42.433Z,8.32
2019-02-15T16:50:14.034Z,8.23
2019-02-15T16:52:44.210Z,8.14
2019-02-15T16:55:14.496Z,8.06
2019-02-15T16:57:45.477Z,7.98
2019-02-15T17:00:16.302Z,7.90
2019-02-15T17:02:46.464Z,7.81
2019-02-15T17:05:17.379Z,7.73
2019-02-15T17:07:47.769Z,7.65
2019-02-15T17:10:19.616Z,7.57
2019-02-15T17:12:51.646Z,7.48
2019-02-15T17:15:21.950Z,7.42
2019-02-15T17:17:52.995Z,7.35
2019-02-15T17:20:23.185Z,7.26
2019-02-15T17:22:54.445Z,7.19
2019-02-15T17:25:25.401Z,7.11
2019-02-15T17:27:55.685Z,7.03
2019-02-15T17:30:25.892Z,6.93
2019-02-15T17:32:56.098Z,6.84
2019-02-15T17:35:26.198Z,6.76
2019-02-15T17:37:56.405Z,6.63
2019-02-15T17:40:26.566Z,6.50
2019-02-15T17:42:58.439Z,6.35
2019-02-15T17:45:28.679Z,6.18
2019-02-15T17:47:59.652Z,6.06
2019-02-15T17:50:29.781Z,5.97
2019-02-15T17:53:00.839Z,5.87
2019-02-15T17:55:31.937Z,5.76
2019-02-15T17:58:02.873Z,5.68
2019-02-15T18:00:33.859Z,5.58
2019-02-15T18:03:04.022Z,5.49
2019-02-15T18:05:34.323Z,5.39
2019-02-15T18:08:04.586Z,5.32
2019-02-15T18:10:35.515Z,5.22
2019-02-15T18:13:05.730Z,5.15
2019-02-15T18:15:35.941Z,5.08
2019-02-15T18:18:06.154Z,5.01
2019-02-15T18:20:37.153Z,4.83
2019-02-15T18:23:09.107Z,4.83
2019-02-15T18:25:41.458Z,4.77
2019-02-15T18:28:11.668Z,4.69
2019-02-15T18:30:43.426Z,4.61
2019-02-15T18:33:13.754Z,4.50
2019-02-15T18:35:45.229Z,4.41
2019-02-15T18:38:15.458Z,4.32
2019-02-15T18:40:46.464Z,4.29
2019-02-15T18:43:16.655Z,4.25
2019-02-15T18:45:46.785Z,4.22
2019-02-15T18:48:18.525Z,4.16
2019-02-15T18:50:49.539Z,4.16
2019-02-15T18:53:19.747Z,4.17
2019-02-15T18:55:49.894Z,4.21
2019-02-15T18:58:20.809Z,4.18
2019-02-15T19:00:51.066Z,4.19
2019-02-15T19:03:22.044Z,4.18
2019-02-15T19:05:53.175Z,4.19
2019-02-15T19:08:24.203Z,4.16
2019-02-15T19:10:55.263Z,4.10
2019-02-15T19:13:25.443Z,4.06
2019-02-15T19:15:55.634Z,4.01
2019-02-15T19:18:25.823Z,3.96
2019-02-15T19:20:56.029Z,3.89
2019-02-15T19:23:26.246Z,3.85
2019-02-15T19:25:58.135Z,3.82
2019-02-15T19:28:28.370Z,3.79
2019-02-15T19:31:00.136Z,3.75
2019-02-15T19:33:30.414Z,3.72
2019-02-15T19:36:00.778Z,3.67
2019-02-15T19:38:31.849Z,3.63
2019-02-15T19:41:02.867Z,3.60
2019-02-15T19:43:33.141Z,3.59
2019-02-15T19:46:04.035Z,3.53
2019-02-15T19:48:34.342Z,3.49
2019-02-15T19:51:04.841Z,3.45
2019-02-15T19:53:35.297Z,3.41
2019-02-15T19:56:06.529Z,3.38
2019-02-15T19:58:36.916Z,3.35
2019-02-15T20:01:07.325Z,3.30
2019-02-15T20:03:39.953Z,3.27
2019-02-15T20:06:14.287Z,3.22
2019-02-15T20:08:45.897Z,3.18
2019-02-15T20:11:16.264Z,3.15
2019-02-15T20:13:47.416Z,3.08
2019-02-15T20:16:18.895Z,3.03
2019-02-15T20:18:50.880Z,2.99
2019-02-15T20:21:21.274Z,2.98
2019-02-15T20:23:51.669Z,2.93
2019-02-15T20:26:21.978Z,2.91
2019-02-15T20:28:53.990Z,2.89
2019-02-15T20:31:24.420Z,2.86
2019-02-15T20:33:55.956Z,2.81
2019-02-15T20:36:26.341Z,2.74
2019-02-15T20:38:56.712Z,2.67
2019-02-15T20:41:27.188Z,2.62
2019-02-15T20:43:57.654Z,2.57
2019-02-15T20:46:28.086Z,2.56
2019-02-15T20:49:04.644Z,2.57
2019-02-15T20:51:30.733Z,2.58
2019-02-15T20:54:01.916Z,2.58
2019-02-15T20:56:33.183Z,2.56
2019-02-15T20:59:03.674Z,2.56
2019-02-15T21:01:34.932Z,2.52
2019-02-15T21:04:05.293Z,2.46
2019-02-15T21:06:35.673Z,2.44
2019-02-15T21:09:07.616Z,2.41
2019-02-15T21:11:38.161Z,2.39
2019-02-15T21:14:08.457Z,2.40
2019-02-15T21:16:40.080Z,2.41
2019-02-15T21:19:10.407Z,2.40
2019-02-15T21:21:40.633Z,2.38
2019-02-15T21:24:10.939Z,2.38
2019-02-15T21:26:41.125Z,2.35
2019-02-15T21:29:12.380Z,2.32
2019-02-15T21:31:42.605Z,2.30
2019-02-15T21:34:13.845Z,2.27
2019-02-15T21:36:44.070Z,2.21
2019-02-15T21:39:15.066Z,2.15
2019-02-15T21:41:45.382Z,2.06
2019-02-15T21:44:15.660Z,2.06
2019-02-15T21:46:45.931Z,2.08
2019-02-15T21:49:17.038Z,2.04
2019-02-15T21:51:47.222Z,2.00
2019-02-15T21:54:17.436Z,1.97
2019-02-15T21:56:47.694Z,1.95
2019-02-15T21:59:18.286Z,1.92
2019-02-15T22:01:49.969Z,1.87
2019-02-15T22:04:21.741Z,1.81
2019-02-15T22:06:52.884Z,1.81
2019-02-15T22:09:24.603Z,1.79
2019-02-15T22:11:54.853Z,1.77
2019-02-15T22:14:25.058Z,1.77
2019-02-15T22:16:55.238Z,1.73
2019-02-15T22:19:25.854Z,1.69
2019-02-15T22:21:56.488Z,1.66
2019-02-15T22:24:27.663Z,1.62
2019-02-15T22:26:58.677Z,1.62
2019-02-15T22:29:28.851Z,1.59
2019-02-15T22:31:59.095Z,1.56
2019-02-15T22:34:29.289Z,1.53
2019-02-15T22:37:00.178Z,1.48
2019-02-15T22:39:30.395Z,1.47
2019-02-15T22:42:00.645Z,1.45
2019-02-15T22:44:30.824Z,1.45
2019-02-15T22:47:02.116Z,1.44
2019-02-15T22:49:43.150Z,1.44
2019-02-15T22:52:05.092Z,1.42
2019-02-15T22:54:35.304Z,1.42
2019-02-15T22:57:05.617Z,1.41
2019-02-15T22:59:35.780Z,1.38
2019-02-15T23:02:06.847Z,1.40
2019-02-15T23:04:36.993Z,1.37
2019-02-15T23:07:08.886Z,1.32
2019-02-15T23:09:39.057Z,1.30
2019-02-15T23:12:09.200Z,1.29
2019-02-15T23:14:39.413Z,1.25
2019-02-15T23:17:10.400Z,1.24
2019-02-15T23:19:40.591Z,1.21
2019-02-15T23:22:11.534Z,1.20
2019-02-15T23:24:42.578Z,1.21
2019-02-15T23:27:13.233Z,1.20
2019-02-15T23:29:43.454Z,1.20
2019-02-15T23:32:13.620Z,1.22
2019-02-15T23:34:43.818Z,1.15
2019-02-15T23:37:14.783Z,1.17
2019-02-15T23:39:45.003Z,1.14
2019-02-15T23:42:15.944Z,1.11
2019-02-15T23:44:46.247Z,1.12
2019-02-15T23:47:17.286Z,1.09
2019-02-15T23:49:47.435Z,1.04
2019-02-15T23:52:18.371Z,1.02
2019-02-15T23:54:49.473Z,1.00
2019-02-15T23:57:19.613Z,0.98
2019-02-15T23:59:49.883Z,0.99
